Time;durP1;ratioP1;P1;durP2;ratioP2;P2;SDS_P1;SDS_P2;PMS_P1;PMS_P2;Temp;Humidity;BMP_temperature;BMP_pressure;BME280_temperature;BME280_humidity;BME280_pressure;Samples;Min_cycle;Max_cycle;Signal;HPM_P1;HPM_P2
2023/12/04 00:00:07;;;;;;;21.83;10.70;;;0.80;99.90;;;;;;5036363;28;20041;-72
2023/12/04 00:02:32;;;;;;;24.23;11.23;;;0.80;99.90;;;;;;5036692;28;20037;-72
2023/12/04 00:05:01;;;;;;;20.65;11.20;;;0.80;99.90;;;;;;5035846;28;20036;-72
2023/12/04 00:07:27;;;;;;;26.70;12.40;;;0.80;99.90;;;;;;5042464;28;20040;-72
2023/12/04 00:09:55;;;;;;;26.13;10.65;;;0.70;99.90;;;;;;5042664;28;20124;-72
2023/12/04 00:12:21;;;;;;;23.40;11.53;;;0.80;99.90;;;;;;5043191;28;20067;-72
2023/12/04 00:14:46;;;;;;;23.57;10.87;;;0.80;99.90;;;;;;5043197;28;20235;-72
2023/12/04 00:17:12;;;;;;;20.23;9.70;;;0.80;99.90;;;;;;5040573;28;20482;-72
2023/12/04 00:19:40;;;;;;;18.77;9.60;;;0.80;99.90;;;;;;5039529;28;20053;-73
2023/12/04 00:22:06;;;;;;;20.70;11.07;;;0.80;99.90;;;;;;5035648;28;20037;-72
2023/12/04 00:24:32;;;;;;;24.97;10.93;;;0.80;99.90;;;;;;5042287;28;20055;-72
2023/12/04 00:26:57;;;;;;;22.93;10.83;;;0.80;99.90;;;;;;5040593;28;20384;-72
2023/12/04 00:29:27;;;;;;;25.30;10.73;;;0.80;99.90;;;;;;5044647;28;20045;-72
2023/12/04 00:31:53;;;;;;;21.35;9.60;;;0.80;99.90;;;;;;5043964;28;20567;-72
2023/12/04 00:34:18;;;;;;;22.67;10.45;;;0.80;99.90;;;;;;5038774;28;20052;-72
2023/12/04 00:36:44;;;;;;;21.73;10.07;;;0.80;99.90;;;;;;5043135;28;20063;-72
2023/12/04 00:39:10;;;;;;;21.03;9.67;;;0.80;99.90;;;;;;5042352;28;20127;-72
2023/12/04 00:41:38;;;;;;;22.80;10.53;;;0.80;99.90;;;;;;5044094;28;20673;-72
2023/12/04 00:44:04;;;;;;;20.70;10.23;;;0.80;99.90;;;;;;5046051;28;20044;-72
2023/12/04 00:46:32;;;;;;;21.13;9.17;;;0.80;99.90;;;;;;5042761;28;20041;-72
2023/12/04 00:48:58;;;;;;;20.63;10.05;;;0.80;99.90;;;;;;5041843;28;20041;-72
2023/12/04 00:51:26;;;;;;;22.15;10.77;;;0.80;99.90;;;;;;5042529;28;20524;-72
2023/12/04 00:53:55;;;;;;;19.13;10.37;;;0.80;99.90;;;;;;5039460;28;20053;-72
2023/12/04 00:56:21;;;;;;;21.20;10.63;;;0.90;99.90;;;;;;5041418;28;20123;-73
2023/12/04 00:58:46;;;;;;;20.07;9.33;;;0.80;99.90;;;;;;5043384;28;20518;-73
2023/12/04 01:01:12;;;;;;;22.57;10.57;;;0.80;99.90;;;;;;5045658;28;20041;-72
2023/12/04 01:03:40;;;;;;;22.70;11.00;;;0.80;99.90;;;;;;5040367;28;20482;-72
2023/12/04 01:06:06;;;;;;;23.02;11.30;;;0.80;99.90;;;;;;5028837;28;20260;-72
2023/12/04 01:08:32;;;;;;;21.73;10.60;;;0.80;99.90;;;;;;5038778;28;20044;-72
2023/12/04 01:10:58;;;;;;;21.93;10.50;;;0.80;99.90;;;;;;5048596;28;20044;-72
2023/12/04 01:13:23;;;;;;;23.27;10.97;;;0.80;99.90;;;;;;5048352;28;20063;-72
2023/12/04 01:15:51;;;;;;;19.87;10.30;;;0.80;99.90;;;;;;5048472;28;20039;-72
2023/12/04 01:18:20;;;;;;;22.00;10.02;;;0.80;99.90;;;;;;5031886;28;20513;-72
2023/12/04 01:20:48;;;;;;;18.73;10.10;;;0.80;99.90;;;;;;5048580;28;20116;-72
2023/12/04 01:23:13;;;;;;;16.80;9.05;;;0.80;99.90;;;;;;5031895;28;20128;-72
2023/12/04 01:25:46;;;;;;;22.80;10.13;;;0.80;99.90;;;;;;5048791;28;20422;-73
2023/12/04 01:28:13;;;;;;;21.17;10.05;;;0.80;99.90;;;;;;5045319;28;20063;-72
2023/12/04 01:30:38;;;;;;;19.67;9.70;;;0.80;99.90;;;;;;5038387;28;20053;-75
2023/12/04 01:33:04;;;;;;;20.60;9.90;;;0.90;99.90;;;;;;5047810;28;20375;-72
2023/12/04 01:35:32;;;;;;;20.13;9.95;;;0.80;99.90;;;;;;5048744;28;20452;-71
2023/12/04 01:37:58;;;;;;;20.70;10.73;;;0.80;99.90;;;;;;5049586;28;20028;-71
2023/12/04 01:40:29;;;;;;;19.52;9.40;;;0.80;99.90;;;;;;5049477;28;20125;-71
2023/12/04 01:42:55;;;;;;;21.75;9.88;;;0.90;99.90;;;;;;5023221;28;20048;-73
2023/12/04 01:45:21;;;;;;;20.53;10.67;;;0.90;99.90;;;;;;5045440;28;20456;-72
2023/12/04 01:47:47;;;;;;;20.67;9.37;;;0.80;99.90;;;;;;5049460;28;20040;-71
2023/12/04 01:50:14;;;;;;;19.05;10.43;;;0.90;99.90;;;;;;5049232;28;20249;-71
2023/12/04 01:52:40;;;;;;;19.60;9.75;;;0.90;99.90;;;;;;5018824;28;20120;-72
2023/12/04 01:55:10;;;;;;;20.73;9.63;;;0.80;99.90;;;;;;5048883;28;20040;-72
2023/12/04 01:57:36;;;;;;;22.40;11.15;;;0.90;99.90;;;;;;5045730;28;20417;-72
2023/12/04 02:00:02;;;;;;;23.53;10.63;;;0.90;99.90;;;;;;5032228;28;20044;-72
2023/12/04 02:02:34;;;;;;;22.52;10.20;;;0.90;99.90;;;;;;5048059;28;20276;-72
2023/12/04 02:05:01;;;;;;;20.58;9.85;;;0.90;99.90;;;;;;5042763;28;20647;-72
2023/12/04 02:07:29;;;;;;;24.65;10.25;;;0.90;99.90;;;;;;5031189;28;20076;-72
2023/12/04 02:09:56;;;;;;;23.02;9.73;;;0.90;99.90;;;;;;5032801;28;20033;-72
2023/12/04 02:12:25;;;;;;;22.67;10.00;;;0.90;99.90;;;;;;5050540;28;20094;-72
2023/12/04 02:14:51;;;;;;;23.88;10.45;;;0.90;99.90;;;;;;5049584;28;20535;-72
2023/12/04 02:17:17;;;;;;;;;;;0.90;99.90;;;;;;5033072;28;20386;-73
2023/12/04 02:19:43;;;;;;;19.63;9.43;;;0.90;99.90;;;;;;5049488;28;19921;-72
2023/12/04 02:22:14;;;;;;;26.27;10.40;;;0.90;99.90;;;;;;5046164;28;20520;-72
2023/12/04 02:24:40;;;;;;;19.42;9.77;;;0.90;99.90;;;;;;5047960;28;20050;-72
2023/12/04 02:27:14;;;;;;;22.45;11.02;;;0.90;99.90;;;;;;5048863;28;20056;-72
2023/12/04 02:30:00;;;;;;;23.35;10.55;;;0.90;99.90;;;;;;5050481;28;20480;-72
2023/12/04 02:32:30;;;;;;;24.70;11.70;;;0.90;99.90;;;;;;5050613;28;20444;-72
2023/12/04 02:35:04;;;;;;;23.80;11.38;;;0.90;99.90;;;;;;5049265;28;20037;-73
2023/12/04 02:37:30;;;;;;;22.33;10.90;;;0.90;99.90;;;;;;5049639;28;20441;-72
2023/12/04 02:39:58;;;;;;;23.90;11.45;;;0.90;99.90;;;;;;5049676;28;20340;-72
2023/12/04 02:42:27;;;;;;;21.45;10.75;;;0.90;99.90;;;;;;5026876;28;20048;-72
2023/12/04 02:44:53;;;;;;;22.80;11.15;;;0.90;99.90;;;;;;5046426;28;20412;-72
2023/12/04 02:47:19;;;;;;;25.33;10.83;;;0.90;99.90;;;;;;5048732;28;20048;-72
2023/12/04 02:49:45;;;;;;;25.05;11.77;;;1.00;99.90;;;;;;5050325;28;20064;-72
2023/12/04 02:52:10;;;;;;;23.60;11.57;;;0.90;99.90;;;;;;5049252;28;20056;-72
2023/12/04 02:54:36;;;;;;;30.23;12.40;;;0.90;99.90;;;;;;5048717;28;20066;-72
2023/12/04 02:57:02;;;;;;;22.53;11.53;;;0.90;99.90;;;;;;5048881;28;20079;-72
2023/12/04 02:59:33;;;;;;;25.38;12.48;;;1.00;99.90;;;;;;5048921;28;20056;-72
2023/12/04 03:02:01;;;;;;;24.65;10.75;;;1.00;99.90;;;;;;5049922;28;20529;-72
2023/12/04 03:04:29;;;;;;;27.88;11.75;;;0.90;99.90;;;;;;5047081;28;20036;-72
2023/12/04 03:06:55;;;;;;;23.73;10.27;;;1.00;99.90;;;;;;5049699;28;20489;-72
2023/12/04 03:09:21;;;;;;;24.80;11.63;;;0.90;99.90;;;;;;5048701;28;20137;-72
2023/12/04 03:11:47;;;;;;;24.37;10.50;;;1.00;99.90;;;;;;5049511;28;20508;-72
2023/12/04 03:14:12;;;;;;;22.07;10.97;;;1.00;99.90;;;;;;5039689;28;20098;-72
2023/12/04 03:16:38;;;;;;;29.23;12.63;;;1.00;99.90;;;;;;5048905;28;20055;-72
2023/12/04 03:19:04;;;;;;;24.70;10.67;;;1.00;99.90;;;;;;5048258;28;20275;-73
2023/12/04 03:21:29;;;;;;;25.53;11.70;;;1.00;99.90;;;;;;5026552;28;20110;-72
2023/12/04 03:23:55;;;;;;;22.13;10.40;;;1.00;99.90;;;;;;5042924;28;20037;-72
2023/12/04 03:26:21;;;;;;;24.90;11.00;;;1.00;99.90;;;;;;5048281;28;20382;-72
2023/12/04 03:28:46;;;;;;;23.03;10.37;;;1.00;99.90;;;;;;5048127;28;20068;-72
2023/12/04 03:31:14;;;;;;;25.00;11.23;;;1.00;99.90;;;;;;5047735;28;20041;-72
2023/12/04 03:33:40;;;;;;;28.42;11.40;;;1.00;99.90;;;;;;5048926;28;20124;-72
2023/12/04 03:36:08;;;;;;;24.17;10.73;;;1.00;99.90;;;;;;5042015;28;20129;-72
2023/12/04 03:38:34;;;;;;;23.02;11.52;;;1.00;99.90;;;;;;5048058;28;20047;-72
2023/12/04 03:40:59;;;;;;;29.23;11.70;;;1.00;99.90;;;;;;5030934;28;20448;-72
2023/12/04 03:43:25;;;;;;;20.60;9.93;;;1.00;99.90;;;;;;5041011;28;20048;-72
2023/12/04 03:45:51;;;;;;;20.57;10.13;;;1.00;99.90;;;;;;5048485;28;20037;-72
2023/12/04 03:48:17;;;;;;;23.50;10.27;;;1.00;99.90;;;;;;5047974;28;20076;-72
2023/12/04 03:50:42;;;;;;;23.20;10.00;;;1.00;99.90;;;;;;5047928;28;20045;-72
2023/12/04 03:53:08;;;;;;;24.07;10.20;;;1.00;99.90;;;;;;5048147;28;20040;-72
2023/12/04 03:55:34;;;;;;;21.40;10.73;;;1.00;99.90;;;;;;5048107;28;20045;-72
2023/12/04 03:57:59;;;;;;;22.87;9.90;;;1.00;99.90;;;;;;5047946;28;20084;-72
2023/12/04 04:00:30;;;;;;;24.58;10.32;;;1.00;99.90;;;;;;5048182;28;20472;-72
2023/12/04 04:02:59;;;;;;;26.00;10.30;;;1.00;99.90;;;;;;5048833;28;20041;-72
2023/12/04 04:05:28;;;;;;;22.67;9.85;;;1.00;99.90;;;;;;5047796;28;20048;-72
2023/12/04 04:07:55;;;;;;;28.27;11.18;;;1.00;99.90;;;;;;5031405;28;20045;-72
2023/12/04 04:10:21;;;;;;;20.23;10.07;;;1.00;99.90;;;;;;5049338;28;20185;-72
2023/12/04 04:12:47;;;;;;;23.47;10.40;;;1.00;99.90;;;;;;5047629;28;20441;-72
2023/12/04 04:15:15;;;;;;;23.63;10.53;;;1.00;99.90;;;;;;5047883;28;20048;-72
2023/12/04 04:17:41;;;;;;;20.95;10.30;;;1.00;99.90;;;;;;5047326;28;20504;-72
2023/12/04 04:20:07;;;;;;;26.93;10.50;;;1.00;99.90;;;;;;5048882;28;20116;-72
2023/12/04 04:22:37;;;;;;;24.90;11.05;;;1.00;99.90;;;;;;5045787;28;20049;-72
2023/12/04 04:25:12;;;;;;;22.70;10.40;;;1.00;99.90;;;;;;5047560;28;20052;-72
2023/12/04 04:27:38;;;;;;;24.25;10.07;;;1.00;99.90;;;;;;5048416;28;20063;-72
2023/12/04 04:30:04;;;;;;;24.10;11.20;;;1.00;99.90;;;;;;5031273;28;20033;-72
2023/12/04 04:32:30;;;;;;;22.40;9.63;;;1.00;99.90;;;;;;5030484;28;20127;-71
2023/12/04 04:34:55;;;;;;;23.53;11.00;;;1.00;99.90;;;;;;5047405;28;20136;-72
2023/12/04 04:37:21;;;;;;;20.00;9.63;;;1.00;99.90;;;;;;5047653;28;20041;-72
2023/12/04 04:39:49;;;;;;;21.67;9.53;;;1.00;99.90;;;;;;5047557;28;20660;-72
2023/12/04 04:42:15;;;;;;;20.67;9.23;;;1.00;99.90;;;;;;5047779;28;20436;-72
2023/12/04 04:44:43;;;;;;;26.73;9.87;;;1.00;99.90;;;;;;5049538;28;20033;-72
2023/12/04 04:47:08;;;;;;;23.55;10.30;;;1.00;99.90;;;;;;5034544;28;20485;-72
2023/12/04 04:49:37;;;;;;;21.88;9.98;;;1.00;99.90;;;;;;5051248;28;20080;-72
2023/12/04 04:52:03;;;;;;;21.77;9.47;;;1.00;99.90;;;;;;5051048;28;20076;-72
2023/12/04 04:54:32;;;;;;;23.60;9.75;;;1.00;99.90;;;;;;5051497;28;20128;-72
2023/12/04 04:56:57;;;;;;;17.55;8.73;;;1.00;99.90;;;;;;5030508;28;20045;-72
2023/12/04 04:59:23;;;;;;;21.00;9.30;;;1.00;99.90;;;;;;5051075;28;20569;-72
2023/12/04 05:01:49;;;;;;;22.17;9.80;;;1.00;99.90;;;;;;5050960;28;20099;-72
2023/12/04 05:04:17;;;;;;;21.73;9.60;;;1.00;99.90;;;;;;5034372;28;20044;-72
2023/12/04 05:06:43;;;;;;;20.97;9.23;;;1.00;99.90;;;;;;5050506;28;20111;-72
2023/12/04 05:09:09;;;;;;;25.90;9.40;;;1.00;99.90;;;;;;5052242;28;20159;-72
2023/12/04 05:11:34;;;;;;;19.63;9.53;;;1.00;99.90;;;;;;5052301;28;20045;-72
2023/12/04 05:14:00;;;;;;;20.23;8.73;;;1.00;99.90;;;;;;5050938;28;20043;-72
2023/12/04 05:16:28;;;;;;;22.43;9.60;;;1.00;99.90;;;;;;5051061;28;20127;-72
2023/12/04 05:18:53;;;;;;;24.35;9.35;;;1.00;99.90;;;;;;5050344;28;20048;-72
2023/12/04 05:21:19;;;;;;;21.23;9.03;;;1.00;99.90;;;;;;5050838;28;20215;-72
2023/12/04 05:23:45;;;;;;;21.57;9.27;;;1.00;99.90;;;;;;5050176;28;20357;-72
2023/12/04 05:26:10;;;;;;;24.57;9.13;;;1.00;99.90;;;;;;5050280;28;20175;-72
2023/12/04 05:28:38;;;;;;;19.60;9.00;;;1.00;99.90;;;;;;5051540;28;20037;-72
2023/12/04 05:31:04;;;;;;;20.83;9.07;;;1.00;99.90;;;;;;5050246;28;20120;-72
2023/12/04 05:33:30;;;;;;;22.60;9.13;;;1.00;99.90;;;;;;5050186;28;20159;-72
2023/12/04 05:35:56;;;;;;;20.87;9.37;;;1.00;99.90;;;;;;5049934;28;20048;-72
2023/12/04 05:38:24;;;;;;;22.27;9.75;;;1.00;99.90;;;;;;5050414;28;20635;-72
2023/12/04 05:40:50;;;;;;;20.70;9.13;;;1.00;99.90;;;;;;5033448;28;20040;-72
2023/12/04 05:43:19;;;;;;;20.83;8.80;;;1.00;99.90;;;;;;5050072;28;20122;-72
2023/12/04 05:45:44;;;;;;;22.25;8.93;;;1.10;99.90;;;;;;5049864;28;20041;-72
2023/12/04 05:48:10;;;;;;;20.43;8.93;;;1.00;99.90;;;;;;5051426;28;20049;-72
2023/12/04 05:50:38;;;;;;;19.65;8.95;;;1.00;99.90;;;;;;5050048;28;20612;-72
2023/12/04 05:53:07;;;;;;;21.52;8.85;;;1.00;99.90;;;;;;5050149;28;20091;-72
2023/12/04 05:55:33;;;;;;;22.23;9.20;;;1.00;99.90;;;;;;5041036;28;20045;-72
2023/12/04 05:57:59;;;;;;;19.77;8.57;;;1.10;99.90;;;;;;5049396;28;20045;-72
2023/12/04 06:00:25;;;;;;;19.45;8.82;;;1.10;99.90;;;;;;5043405;28;20091;-72
2023/12/04 06:02:51;;;;;;;17.70;8.70;;;1.10;99.90;;;;;;5037702;28;20272;-75
2023/12/04 06:05:16;;;;;;;20.47;9.17;;;1.10;99.90;;;;;;5038981;28;20634;-76
2023/12/04 06:07:45;;;;;;;22.37;9.10;;;1.10;99.90;;;;;;5041191;28;20037;-75
2023/12/04 06:10:13;;;;;;;20.15;9.23;;;1.10;99.90;;;;;;5046254;28;20041;-75
2023/12/04 06:12:40;;;;;;;20.88;9.18;;;1.10;99.90;;;;;;5038382;28;20045;-76
2023/12/04 06:15:07;;;;;;;19.23;8.25;;;1.10;99.90;;;;;;5048706;28;20041;-75
2023/12/04 06:17:32;;;;;;;21.15;9.60;;;1.10;99.90;;;;;;5043328;28;20052;-75
2023/12/04 06:19:58;;;;;;;19.87;8.93;;;1.10;99.90;;;;;;5040735;28;20135;-75
2023/12/04 06:22:24;;;;;;;19.70;9.17;;;1.10;99.90;;;;;;5036975;28;20115;-75
2023/12/04 06:24:52;;;;;;;18.50;8.40;;;1.10;99.90;;;;;;5018422;28;20041;-75
2023/12/04 06:27:30;;;;;;;19.90;8.63;;;1.10;99.90;;;;;;5043043;28;20051;-76
2023/12/04 06:29:56;;;;;;;20.33;9.45;;;1.10;99.90;;;;;;5038520;28;20435;-76
2023/12/04 06:32:21;;;;;;;18.17;8.10;;;1.10;99.90;;;;;;5033990;28;20041;-76
2023/12/04 06:34:47;;;;;;;19.03;8.00;;;1.10;99.90;;;;;;5041911;28;20047;-76
2023/12/04 06:37:14;;;;;;;19.08;8.38;;;1.10;99.90;;;;;;5033947;28;20347;-76
2023/12/04 06:39:47;;;;;;;19.77;8.52;;;1.10;99.90;;;;;;5034288;28;20545;-77
2023/12/04 06:42:14;;;;;;;18.65;8.32;;;1.10;99.90;;;;;;5036645;28;20063;-77
2023/12/04 06:44:43;;;;;;;21.83;8.10;;;1.10;99.90;;;;;;5038079;28;20045;-76
2023/12/04 06:47:12;;;;;;;17.88;8.38;;;1.10;99.90;;;;;;5015262;28;20136;-76
2023/12/04 06:49:38;;;;;;;19.80;8.32;;;1.10;99.90;;;;;;5029580;28;20116;-75
2023/12/04 06:52:07;;;;;;;21.83;9.13;;;1.10;99.90;;;;;;5038167;28;20041;-76
2023/12/04 06:54:32;;;;;;;17.52;7.60;;;1.10;99.90;;;;;;5032188;28;20393;-76
2023/12/04 06:57:01;;;;;;;16.38;7.68;;;1.00;99.90;;;;;;5036464;28;20669;-76
2023/12/04 06:59:27;;;;;;;17.08;8.52;;;1.00;99.90;;;;;;5040269;28;20052;-76
2023/12/04 07:01:53;;;;;;;18.38;8.10;;;1.00;99.90;;;;;;5036674;28;20048;-76
2023/12/04 07:04:20;;;;;;;18.87;8.30;;;1.10;99.90;;;;;;5038340;28;20556;-76
2023/12/04 07:06:48;;;;;;;19.10;7.65;;;1.00;99.90;;;;;;5020928;28;20041;-76
2023/12/04 07:09:14;;;;;;;17.55;7.90;;;1.10;99.90;;;;;;5039990;28;20093;-76
2023/12/04 07:11:40;;;;;;;15.55;7.97;;;1.00;99.90;;;;;;5044492;28;20047;-78
2023/12/04 07:14:05;;;;;;;15.33;6.67;;;1.00;99.90;;;;;;5036627;28;20421;-77
2023/12/04 07:16:38;;;;;;;16.60;7.20;;;1.00;99.90;;;;;;5040922;28;20044;-76
2023/12/04 07:19:04;;;;;;;18.50;7.30;;;1.00;99.90;;;;;;5040035;28;20130;-76
2023/12/04 07:21:30;;;;;;;;;;;1.00;99.90;;;;;;5036501;28;20441;-76
2023/12/04 07:23:56;;;;;;;19.02;7.30;;;1.00;99.90;;;;;;5039449;28;19924;-76
2023/12/04 07:26:26;;;;;;;16.87;7.33;;;1.00;99.90;;;;;;5027443;28;20497;-76
2023/12/04 07:28:51;;;;;;;17.48;7.07;;;1.00;99.90;;;;;;5037319;28;20488;-76
2023/12/04 07:31:17;;;;;;;17.83;8.20;;;1.10;99.90;;;;;;5042909;28;20044;-76
2023/12/04 07:33:43;;;;;;;15.53;6.97;;;1.00;99.90;;;;;;5036849;28;20049;-76
2023/12/04 07:36:09;;;;;;;16.33;7.33;;;1.10;99.90;;;;;;5034244;28;20865;-76
2023/12/04 07:38:34;;;;;;;13.07;6.40;;;1.00;99.90;;;;;;5037075;28;20033;-76
2023/12/04 07:41:00;;;;;;;13.73;6.80;;;1.00;99.90;;;;;;5037456;28;20057;-76
2023/12/04 07:43:28;;;;;;;15.00;6.80;;;1.00;99.90;;;;;;5038752;28;20041;-75
2023/12/04 07:45:56;;;;;;;13.80;6.68;;;1.00;99.90;;;;;;5031561;28;20041;-75
2023/12/04 07:48:22;;;;;;;17.90;7.13;;;1.00;99.90;;;;;;5041140;28;20037;-76
2023/12/04 07:50:47;;;;;;;16.20;6.50;;;1.10;99.90;;;;;;5041142;28;20128;-76
2023/12/04 07:53:13;;;;;;;15.60;7.27;;;1.10;99.90;;;;;;5026494;28;20059;-76
2023/12/04 07:55:39;;;;;;;15.60;6.97;;;1.10;99.90;;;;;;5037449;28;20697;-76
2023/12/04 07:58:05;;;;;;;18.13;7.00;;;1.10;99.90;;;;;;5037348;28;20275;-76
2023/12/04 08:00:30;;;;;;;14.43;7.03;;;1.10;99.90;;;;;;5032233;28;20045;-76
2023/12/04 08:02:56;;;;;;;11.70;6.30;;;1.10;99.90;;;;;;5030997;28;20036;-76
2023/12/04 08:05:22;;;;;;;14.03;6.13;;;1.10;99.90;;;;;;5039401;28;20496;-76
2023/12/04 08:07:48;;;;;;;16.07;7.13;;;1.10;99.90;;;;;;5040079;28;20375;-76
2023/12/04 08:10:14;;;;;;;15.70;7.70;;;1.10;99.90;;;;;;5021407;28;20045;-76
2023/12/04 08:12:39;;;;;;;16.33;5.95;;;1.10;99.90;;;;;;5039637;28;20428;-76
2023/12/04 08:15:06;;;;;;;15.83;5.93;;;1.10;99.90;;;;;;5014365;28;20045;-76
2023/12/04 08:17:31;;;;;;;13.88;6.18;;;1.20;99.90;;;;;;5033708;28;20448;-76
2023/12/04 08:19:57;;;;;;;12.43;6.20;;;1.20;99.90;;;;;;5039582;28;20044;-76
2023/12/04 08:22:23;;;;;;;13.87;6.30;;;1.20;99.90;;;;;;5035748;28;20087;-76
2023/12/04 08:24:48;;;;;;;14.63;6.83;;;1.20;99.90;;;;;;5042587;28;20048;-76
2023/12/04 08:27:14;;;;;;;14.20;6.07;;;1.20;99.90;;;;;;5041221;28;20449;-76
2023/12/04 08:29:40;;;;;;;13.97;6.30;;;1.20;99.90;;;;;;5042298;28;20056;-75
2023/12/04 08:32:06;;;;;;;15.18;7.00;;;1.20;99.90;;;;;;5044375;28;20184;-76
2023/12/04 08:34:32;;;;;;;12.23;6.05;;;1.20;99.90;;;;;;5042080;28;20158;-76
2023/12/04 08:36:58;;;;;;;14.23;6.23;;;1.20;99.90;;;;;;5031527;28;20044;-76
2023/12/04 08:39:23;;;;;;;14.87;6.43;;;1.20;99.90;;;;;;5048299;28;20037;-76
2023/12/04 08:41:49;;;;;;;14.27;6.23;;;1.30;99.90;;;;;;5028371;28;20079;-75
2023/12/04 08:44:15;;;;;;;13.03;6.20;;;1.30;99.90;;;;;;5045468;28;20044;-76
2023/12/04 08:46:43;;;;;;;12.15;5.18;;;1.30;99.90;;;;;;5045094;28;20217;-76
2023/12/04 08:49:09;;;;;;;10.00;5.50;;;1.30;99.90;;;;;;5042231;28;20086;-75
2023/12/04 08:51:34;;;;;;;14.57;5.63;;;1.30;99.90;;;;;;5052741;28;20447;-79
2023/12/04 08:54:00;;;;;;;12.13;5.70;;;1.30;99.90;;;;;;5038101;28;20052;-76
2023/12/04 08:56:26;;;;;;;13.03;5.53;;;1.30;99.90;;;;;;5042492;28;20592;-78
2023/12/04 08:58:51;;;;;;;11.23;5.73;;;1.40;99.90;;;;;;5042716;28;20413;-78
2023/12/04 09:01:17;;;;;;;9.97;5.03;;;1.40;99.90;;;;;;5044734;28;20037;-75
2023/12/04 09:03:42;;;;;;;11.17;5.10;;;1.40;99.90;;;;;;5043282;28;20041;-78
2023/12/04 09:06:08;;;;;;;11.40;4.90;;;1.40;99.90;;;;;;5036234;28;20041;-77
2023/12/04 09:08:35;;;;;;;11.98;5.18;;;1.40;99.90;;;;;;5041459;28;20033;-77
2023/12/04 09:11:01;;;;;;;12.82;6.07;;;1.40;99.90;;;;;;5041033;28;20041;-76
2023/12/04 09:13:26;;;;;;;9.57;5.63;;;1.40;99.90;;;;;;5040876;28;20133;-76
2023/12/04 09:15:52;;;;;;;12.20;6.10;;;1.40;99.90;;;;;;5040236;28;20406;-79
2023/12/04 09:18:18;;;;;;;13.93;5.47;;;1.40;99.90;;;;;;5040322;28;20116;-75
2023/12/04 09:20:44;;;;;;;13.77;5.90;;;1.40;99.90;;;;;;5041782;28;20033;-80
2023/12/04 09:23:09;;;;;;;11.97;5.00;;;1.50;99.90;;;;;;5033210;28;20727;-78
2023/12/04 09:25:36;;;;;;;11.43;5.23;;;1.50;99.90;;;;;;5018236;28;20053;-78
2023/12/04 09:28:02;;;;;;;15.30;6.40;;;1.50;99.90;;;;;;5036592;28;20435;-78
2023/12/04 09:30:28;;;;;;;13.70;5.28;;;1.50;99.90;;;;;;5038433;28;20127;-79
2023/12/04 09:32:54;;;;;;;13.50;5.50;;;1.40;99.90;;;;;;5044770;28;20053;-78
2023/12/04 09:35:19;;;;;;;10.07;5.37;;;1.50;99.90;;;;;;5047154;28;20040;-79
2023/12/04 09:37:45;;;;;;;12.23;5.67;;;1.50;99.90;;;;;;5040167;28;20037;-82
2023/12/04 09:40:12;;;;;;;11.30;5.50;;;1.50;99.90;;;;;;5024711;28;20072;-79
2023/12/04 09:42:39;;;;;;;14.50;5.72;;;1.50;99.90;;;;;;5042635;28;20048;-79
2023/12/04 09:45:07;;;;;;;13.68;5.43;;;1.50;99.90;;;;;;5046184;28;20041;-78
2023/12/04 09:47:34;;;;;;;12.95;5.95;;;1.50;99.90;;;;;;5027503;28;20045;-80
2023/12/04 09:50:00;;;;;;;14.02;5.75;;;1.50;99.90;;;;;;5039464;28;20045;-82
2023/12/04 09:52:27;;;;;;;12.65;5.78;;;1.50;99.90;;;;;;5023813;28;20467;-78
2023/12/04 09:54:53;;;;;;;11.52;5.57;;;1.50;99.90;;;;;;5044578;28;20075;-82
2023/12/04 09:57:19;;;;;;;11.90;5.30;;;1.50;99.90;;;;;;5040324;28;20086;-77
2023/12/04 09:59:47;;;;;;;14.40;6.40;;;1.60;99.90;;;;;;5012131;28;20574;-76
2023/12/04 10:02:12;;;;;;;13.63;6.00;;;1.60;99.90;;;;;;5042071;28;20037;-76
2023/12/04 10:04:38;;;;;;;15.20;5.77;;;1.60;99.90;;;;;;5026239;28;20114;-76
2023/12/04 10:07:04;;;;;;;13.32;5.45;;;1.60;99.90;;;;;;5040103;28;20036;-76
2023/12/04 10:09:30;;;;;;;15.83;6.60;;;1.60;99.90;;;;;;5040720;28;20037;-77
2023/12/04 10:11:56;;;;;;;12.18;6.38;;;1.70;99.90;;;;;;5018953;28;21298;-76
2023/12/04 10:14:22;;;;;;;;;;;1.70;99.90;;;;;;5046349;28;20056;-76
2023/12/04 10:16:53;;;;;;;9.63;4.30;;;1.70;99.90;;;;;;5036597;28;19966;-76
2023/12/04 10:19:27;;;;;;;11.65;4.80;;;1.70;99.90;;;;;;5042146;28;20045;-76
2023/12/04 10:22:01;;;;;;;12.98;5.63;;;1.70;99.90;;;;;;5037175;28;20118;-76
2023/12/04 10:24:31;;;;;;;10.95;5.18;;;1.70;99.90;;;;;;5047978;28;20045;-76
2023/12/04 10:26:56;;;;;;;12.45;5.13;;;1.80;99.90;;;;;;5039576;28;20402;-76
2023/12/04 10:29:23;;;;;;;13.97;6.23;;;1.90;99.90;;;;;;5025109;28;20041;-76
2023/12/04 10:31:50;;;;;;;10.80;5.20;;;1.90;99.90;;;;;;5041951;28;20529;-76
2023/12/04 10:34:16;;;;;;;12.40;4.88;;;2.00;99.90;;;;;;5031045;28;20049;-82
2023/12/04 10:36:42;;;;;;;10.68;5.65;;;2.10;99.90;;;;;;5025139;28;20460;-75
2023/12/04 10:39:08;;;;;;;14.80;5.50;;;2.10;99.90;;;;;;5027187;28;20052;-76
2023/12/04 10:41:34;;;;;;;10.80;4.97;;;2.20;99.90;;;;;;5025273;28;20456;-76
2023/12/04 10:44:00;;;;;;;13.10;5.80;;;2.20;99.90;;;;;;5039012;28;20040;-76
2023/12/04 10:46:27;;;;;;;10.27;5.10;;;2.30;99.90;;;;;;5039549;28;20460;-76
2023/12/04 10:48:53;;;;;;;;;;;2.40;99.90;;;;;;5038204;28;20044;-76
2023/12/04 10:51:22;;;;;;;12.07;5.40;;;2.50;99.90;;;;;;5033479;28;19921;-76
2023/12/04 10:53:47;;;;;;;10.48;4.85;;;2.50;99.90;;;;;;5041035;28;20110;-76
2023/12/04 10:56:31;;;;;;;9.80;5.07;;;2.50;99.90;;;;;;5040592;28;20394;-76
2023/12/04 10:58:59;;;;;;;12.00;5.05;;;2.50;99.90;;;;;;5035847;28;20294;-76
2023/12/04 11:01:25;;;;;;;12.25;4.28;;;2.50;99.90;;;;;;5035392;28;20132;-76
2023/12/04 11:03:58;;;;;;;13.60;5.87;;;2.50;99.90;;;;;;5038482;28;20135;-76
2023/12/04 11:06:25;;;;;;;12.18;4.90;;;2.50;99.90;;;;;;5037908;28;20053;-76
2023/12/04 11:08:52;;;;;;;;;;;2.50;99.90;;;;;;5031771;28;20041;-76
2023/12/04 11:11:34;;;;;;;10.55;5.00;;;2.50;99.90;;;;;;5024661;28;19917;-76
2023/12/04 11:14:03;;;;;;;10.27;4.70;;;2.60;99.90;;;;;;5039025;28;20057;-76
2023/12/04 11:16:48;;;;;;;10.90;5.13;;;2.60;99.90;;;;;;5037227;28;20057;-76
2023/12/04 11:19:31;;;;;;;8.88;4.85;;;2.50;99.90;;;;;;5037242;28;20152;-76
2023/12/04 11:21:59;;;;;;;12.43;5.05;;;2.50;99.90;;;;;;5036815;28;20040;-76
2023/12/04 11:24:25;;;;;;;9.32;4.60;;;2.50;99.90;;;;;;5037242;28;20049;-76
2023/12/04 11:26:52;;;;;;;9.00;5.05;;;2.50;99.90;;;;;;5037004;28;20037;-76
2023/12/04 11:29:19;;;;;;;13.30;5.70;;;2.50;99.90;;;;;;5031812;28;20470;-76
2023/12/04 11:31:46;;;;;;;12.40;5.97;;;2.60;99.90;;;;;;5036786;28;20045;-76
2023/12/04 11:34:12;;;;;;;10.45;5.07;;;2.50;99.90;;;;;;5035639;28;20081;-76
2023/12/04 11:36:39;;;;;;;10.75;5.05;;;2.50;99.90;;;;;;5044691;28;20047;-76
2023/12/04 11:39:12;;;;;;;10.60;5.18;;;2.50;99.90;;;;;;5040166;28;20049;-76
2023/12/04 11:41:41;;;;;;;10.52;4.82;;;2.50;99.90;;;;;;5036683;28;20069;-75
2023/12/04 11:44:15;;;;;;;12.90;5.60;;;2.50;99.90;;;;;;5044637;28;20049;-76
2023/12/04 11:47:02;;;;;;;12.38;4.93;;;2.50;99.90;;;;;;5031465;28;20037;-75
2023/12/04 11:49:29;;;;;;;12.00;5.57;;;2.50;99.90;;;;;;5026197;28;20040;-76
2023/12/04 11:51:56;;;;;;;12.60;5.75;;;2.50;99.90;;;;;;5023846;28;20581;-75
2023/12/04 11:54:25;;;;;;;8.85;4.90;;;2.50;99.90;;;;;;5044137;28;20384;-76
2023/12/04 11:57:07;;;;;;;10.45;5.00;;;2.50;99.90;;;;;;5025139;28;20049;-76
2023/12/04 11:59:37;;;;;;;11.40;5.45;;;2.50;99.90;;;;;;5039243;28;20136;-75
2023/12/04 12:02:07;;;;;;;9.93;5.35;;;2.40;99.90;;;;;;5035545;28;20098;-75
2023/12/04 12:04:32;;;;;;;11.45;5.32;;;2.40;99.90;;;;;;5041205;28;20045;-75
2023/12/04 12:06:58;;;;;;;12.00;5.40;;;2.50;99.90;;;;;;5041202;28;20050;-75
2023/12/04 12:09:24;;;;;;;10.13;4.30;;;2.40;99.90;;;;;;5036416;28;20041;-75
2023/12/04 12:11:50;;;;;;;13.30;5.57;;;2.40;99.90;;;;;;5040459;28;20493;-75
2023/12/04 12:14:19;;;;;;;8.67;4.20;;;2.50;99.90;;;;;;5040149;28;20049;-75
2023/12/04 12:16:44;;;;;;;9.70;5.03;;;2.40;99.90;;;;;;5024656;28;20052;-75
2023/12/04 12:19:10;;;;;;;9.37;4.80;;;2.40;99.90;;;;;;5023772;28;20045;-75
2023/12/04 12:21:36;;;;;;;11.67;4.73;;;2.40;99.90;;;;;;5034985;28;20144;-75
2023/12/04 12:24:01;;;;;;;9.73;5.33;;;2.40;99.90;;;;;;5040821;28;20436;-75
2023/12/04 12:26:28;;;;;;;11.03;5.23;;;2.40;99.90;;;;;;5038970;28;20125;-75
2023/12/04 12:28:54;;;;;;;10.02;4.45;;;2.40;99.90;;;;;;5038270;28;20098;-75
2023/12/04 12:31:20;;;;;;;10.63;5.67;;;2.40;99.90;;;;;;5038485;28;20454;-75
2023/12/04 12:33:45;;;;;;;10.67;4.80;;;2.40;99.90;;;;;;5021125;28;20037;-75
2023/12/04 12:36:11;;;;;;;7.80;4.40;;;2.40;99.90;;;;;;5038193;28;20473;-75
2023/12/04 12:38:37;;;;;;;9.27;4.53;;;2.40;99.90;;;;;;5035345;28;20194;-75
2023/12/04 12:41:08;;;;;;;10.90;5.07;;;2.40;99.90;;;;;;5019583;28;20267;-75
2023/12/04 12:43:34;;;;;;;11.07;5.13;;;2.40;99.90;;;;;;5039746;28;20045;-75